createdAt,value
2023-01-15T00:00:22.475Z,99347.91
2023-01-15T00:02:50.502Z,99343.44
2023-01-15T00:05:18.577Z,99341.72
2023-01-15T00:07:47.778Z,99343.91
2023-01-15T00:10:15.689Z,99336.19
2023-01-15T00:12:43.476Z,99338.47
2023-01-15T00:15:14.413Z,99343.44
2023-01-15T00:17:42.584Z,99336.66
2023-01-15T00:20:11.977Z,99337.47
2023-01-15T00:22:39.761Z,99316.44
2023-01-15T00:25:28.272Z,99328.88
2023-01-15T00:27:59.853Z,99332.38
2023-01-15T00:30:29.605Z,99330.31
2023-01-15T00:32:58.857Z,99336.97
2023-01-15T00:35:28.110Z,99354.97
2023-01-15T00:37:56.131Z,99352.03
2023-01-15T00:40:25.422Z,99352.28
2023-01-15T00:42:54.738Z,99356.34
2023-01-15T00:45:23.066Z,99358.44
2023-01-15T00:47:54.897Z,99363.72
2023-01-15T00:50:23.338Z,99363.97
2023-01-15T00:52:51.198Z,99385.56
2023-01-15T00:55:19.167Z,99375.88
2023-01-15T00:57:48.800Z,99373.84
2023-01-15T01:00:17.522Z,99382.78
2023-01-15T01:02:45.558Z,99378.47
2023-01-15T01:05:14.917Z,99387.00
2023-01-15T01:07:42.952Z,99381.06
2023-01-15T01:10:11.614Z,99384.47
2023-01-15T01:12:39.677Z,99393.19
2023-01-15T01:15:10.974Z,99400.84
2023-01-15T01:17:39.784Z,99394.84
2023-01-15T01:20:10.167Z,99399.75
2023-01-15T01:22:38.135Z,99414.16
2023-01-15T01:25:06.793Z,99407.75
2023-01-15T01:27:34.867Z,99411.97
2023-01-15T01:30:02.958Z,99403.88
2023-01-15T01:32:33.051Z,99405.28
2023-01-15T01:35:01.196Z,99407.00
2023-01-15T01:37:29.095Z,99408.00
2023-01-15T01:39:57.170Z,99404.91
2023-01-15T01:42:25.970Z,99399.47
2023-01-15T01:45:18.824Z,99401.09
2023-01-15T01:47:48.782Z,99399.19
2023-01-15T01:50:16.623Z,99409.97
2023-01-15T01:52:49.265Z,99408.13
2023-01-15T01:55:19.603Z,99399.69
2023-01-15T01:57:49.194Z,99408.69
2023-01-15T02:00:17.668Z,99412.47
2023-01-15T02:02:50.472Z,99407.66
2023-01-15T02:05:28.260Z,99406.28
2023-01-15T02:07:56.584Z,99404.44
2023-01-15T02:10:24.642Z,99394.63
2023-01-15T02:13:01.355Z,99390.84
2023-01-15T02:15:33.759Z,99391.50
2023-01-15T02:18:13.101Z,99391.28
2023-01-15T02:20:45.987Z,99376.81
2023-01-15T02:23:27.362Z,99381.41
2023-01-15T02:26:11.849Z,99391.03
2023-01-15T02:28:45.106Z,99382.25
2023-01-15T02:31:18.440Z,99394.47
2023-01-15T02:33:52.443Z,99386.63
2023-01-15T02:36:24.271Z,99387.59
2023-01-15T02:38:57.092Z,99387.78
2023-01-15T02:41:32.533Z,99369.50
2023-01-15T02:44:04.875Z,99360.69
2023-01-15T02:46:36.221Z,99364.59
2023-01-15T02:49:07.642Z,99360.38
2023-01-15T02:51:47.942Z,99352.38
2023-01-15T02:54:18.697Z,99359.16
2023-01-15T02:56:49.817Z,99355.91
2023-01-15T02:59:26.102Z,99373.97
2023-01-15T03:01:58.662Z,99369.03
2023-01-15T03:04:34.005Z,99371.06
2023-01-15T03:07:07.919Z,99378.28
2023-01-15T03:09:36.841Z,99372.25
2023-01-15T03:12:13.714Z,99371.69
2023-01-15T03:14:48.233Z,99372.75
2023-01-15T03:17:20.009Z,99366.06
2023-01-15T03:19:52.401Z,99369.72
2023-01-15T03:22:25.184Z,99370.44
2023-01-15T03:24:56.798Z,99366.38
2023-01-15T03:27:25.316Z,99362.53
2023-01-15T03:30:00.853Z,99365.19
2023-01-15T03:32:31.266Z,99369.47
2023-01-15T03:35:00.458Z,99363.44
2023-01-15T03:37:29.452Z,99354.56
2023-01-15T03:39:58.607Z,99351.06
2023-01-15T03:42:36.344Z,99367.13
2023-01-15T03:45:12.093Z,99363.63
2023-01-15T03:47:47.832Z,99364.84
2023-01-15T03:50:23.966Z,99358.13
2023-01-15T03:52:59.817Z,99359.03
2023-01-15T03:55:37.146Z,99354.13
2023-01-15T03:58:12.507Z,99339.25
2023-01-15T04:00:45.277Z,99352.41
2023-01-15T04:03:16.334Z,99345.47
2023-01-15T04:05:45.296Z,99336.91
2023-01-15T04:08:17.043Z,99335.34
2023-01-15T04:10:55.713Z,99349.88
2023-01-15T04:13:23.681Z,99332.50
2023-01-15T04:15:53.865Z,99329.16
2023-01-15T04:18:22.190Z,99336.78
2023-01-15T04:20:50.472Z,99339.06
2023-01-15T04:23:18.469Z,99332.09
2023-01-15T04:25:46.600Z,99332.16
2023-01-15T04:28:14.604Z,99337.34
2023-01-15T04:30:43.675Z,99330.34
2023-01-15T04:33:13.383Z,99325.78
2023-01-15T04:35:41.282Z,99317.28
2023-01-15T04:38:09.209Z,99318.63
2023-01-15T04:40:54.607Z,99338.53
2023-01-15T04:43:39.954Z,99322.59
2023-01-15T04:46:08.114Z,99325.97
2023-01-15T04:48:37.390Z,99331.53
2023-01-15T04:51:06.012Z,99331.13
2023-01-15T04:53:34.596Z,99327.41
2023-01-15T04:56:03.158Z,99327.69
2023-01-15T04:58:31.675Z,99334.53
2023-01-15T05:01:00.949Z,99336.78
2023-01-15T05:03:29.285Z,99331.59
2023-01-15T05:06:02.549Z,99302.44
2023-01-15T05:08:30.684Z,99306.75
2023-01-15T05:11:02.688Z,99318.72
2023-01-15T05:13:33.175Z,99310.78
2023-01-15T05:16:10.457Z,99311.94
2023-01-15T05:18:38.489Z,99307.19
2023-01-15T05:21:08.495Z,99319.28
2023-01-15T05:23:37.314Z,99314.09
2023-01-15T05:26:06.257Z,99306.88
2023-01-15T05:28:34.172Z,99306.59
2023-01-15T05:31:07.577Z,99303.31
2023-01-15T05:33:36.102Z,99298.25
2023-01-15T05:36:05.620Z,99310.72
2023-01-15T05:38:35.747Z,99304.22
2023-01-15T05:41:27.787Z,99319.91
2023-01-15T05:43:56.584Z,99301.97
2023-01-15T05:46:24.920Z,99312.06
2023-01-15T05:48:52.922Z,99328.09
2023-01-15T05:51:21.509Z,99319.53
2023-01-15T05:53:50.825Z,99319.09
2023-01-15T05:56:18.806Z,99316.88
2023-01-15T05:58:46.813Z,99312.44
2023-01-15T06:01:14.908Z,99311.25
2023-01-15T06:03:43.389Z,99312.00
2023-01-15T06:06:14.999Z,99301.50
2023-01-15T06:08:43.146Z,99309.78
2023-01-15T06:11:13.025Z,99312.25
2023-01-15T06:13:41.182Z,99312.25
2023-01-15T06:16:12.213Z,99317.00
2023-01-15T06:18:40.551Z,99320.69
2023-01-15T06:21:10.557Z,99325.44
2023-01-15T06:23:39.726Z,99318.78
2023-01-15T06:26:10.146Z,99330.41
2023-01-15T06:28:39.463Z,99313.13
2023-01-15T06:31:08.237Z,99314.53
2023-01-15T06:33:36.307Z,99310.81
2023-01-15T06:36:05.417Z,99316.63
2023-01-15T06:38:33.588Z,99320.69
2023-01-15T06:41:02.166Z,99322.09
2023-01-15T06:43:48.293Z,99314.41
2023-01-15T06:46:44.475Z,99323.97
2023-01-15T06:49:12.477Z,99321.63
2023-01-15T06:51:40.579Z,99317.81
2023-01-15T06:54:08.500Z,99316.88
2023-01-15T06:56:39.106Z,99325.22
2023-01-15T06:59:07.118Z,99319.06
2023-01-15T07:01:36.530Z,99317.63
2023-01-15T07:04:04.734Z,99318.66
2023-01-15T07:06:33.243Z,99324.16
2023-01-15T07:09:01.419Z,99314.81
2023-01-15T07:11:29.503Z,99326.16
2023-01-15T07:14:06.019Z,99330.28
2023-01-15T07:16:34.819Z,99328.81
2023-01-15T07:19:05.041Z,99326.06
2023-01-15T07:21:33.204Z,99314.28
2023-01-15T07:24:02.374Z,99319.72
2023-01-15T07:26:30.365Z,99317.84
2023-01-15T07:28:58.463Z,99322.03
2023-01-15T07:31:26.439Z,99309.50
2023-01-15T07:33:54.334Z,99320.66
2023-01-15T07:36:23.759Z,99316.53
2023-01-15T07:38:51.685Z,99311.84
2023-01-15T07:41:37.100Z,99315.03
2023-01-15T07:44:22.541Z,99316.81
2023-01-15T07:47:08.158Z,99318.22
2023-01-15T07:49:48.738Z,99328.97
2023-01-15T07:52:20.179Z,99325.09
2023-01-15T07:54:49.782Z,99323.66
2023-01-15T07:57:21.259Z,99322.19
2023-01-15T07:59:49.166Z,99332.13
2023-01-15T08:02:17.269Z,99338.16
2023-01-15T08:04:45.560Z,99323.84
2023-01-15T08:07:13.514Z,99329.59
2023-01-15T08:09:42.964Z,99328.22
2023-01-15T08:12:29.395Z,99334.97
2023-01-15T08:15:16.626Z,99332.56
2023-01-15T08:17:46.782Z,99344.81
2023-01-15T08:20:17.594Z,99334.16
2023-01-15T08:22:45.966Z,99327.00
2023-01-15T08:25:17.627Z,99328.72
2023-01-15T08:27:46.323Z,99334.88
2023-01-15T08:30:17.692Z,99330.31
2023-01-15T08:32:45.855Z,99346.78
2023-01-15T08:35:14.642Z,99337.84
2023-01-15T08:37:44.097Z,99338.97
2023-01-15T08:40:13.425Z,99347.16
2023-01-15T08:42:42.724Z,99351.72
2023-01-15T08:45:11.561Z,99334.66
2023-01-15T08:47:39.529Z,99323.09
2023-01-15T08:50:09.742Z,99307.69
2023-01-15T08:52:38.592Z,99315.56
2023-01-15T08:55:07.800Z,99309.44
2023-01-15T08:57:35.787Z,99314.66
2023-01-15T09:00:05.802Z,99312.84
2023-01-15T09:02:33.780Z,99308.22
2023-01-15T09:05:01.920Z,99310.50
2023-01-15T09:07:30.011Z,99303.78
2023-01-15T09:09:57.917Z,99300.50
2023-01-15T09:12:27.442Z,99308.69
2023-01-15T09:15:01.449Z,99299.78
2023-01-15T09:17:34.347Z,99301.78
2023-01-15T09:20:03.300Z,99291.19
2023-01-15T09:22:31.432Z,99304.13
2023-01-15T09:24:59.630Z,99300.94
2023-01-15T09:27:28.689Z,99304.44
2023-01-15T09:29:57.334Z,99309.66
2023-01-15T09:32:25.341Z,99306.25
2023-01-15T09:34:54.603Z,99308.69
2023-01-15T09:37:22.545Z,99306.66
2023-01-15T09:39:50.628Z,99317.16
2023-01-15T09:42:40.919Z,99307.59
2023-01-15T09:45:19.913Z,99320.66
2023-01-15T09:48:01.796Z,99318.72
2023-01-15T09:50:40.079Z,99320.31
2023-01-15T09:53:38.014Z,99324.16
2023-01-15T09:56:06.587Z,99316.84
2023-01-15T09:58:36.605Z,99323.63
2023-01-15T10:01:05.337Z,99332.56
2023-01-15T10:03:40.335Z,99321.41
2023-01-15T10:06:16.255Z,99337.41
2023-01-15T10:08:46.881Z,99332.47
2023-01-15T10:11:54.468Z,99305.06
2023-01-15T10:14:39.427Z,99319.50
2023-01-15T10:17:22.199Z,99329.75
2023-01-15T10:19:50.481Z,99324.56
2023-01-15T10:22:38.286Z,99333.47
2023-01-15T10:25:15.839Z,99329.75
2023-01-15T10:27:48.760Z,99330.00
2023-01-15T10:30:19.038Z,99330.38
2023-01-15T10:33:01.584Z,99321.19
2023-01-15T10:35:39.427Z,99327.41
2023-01-15T10:38:17.178Z,99319.00
2023-01-15T10:41:01.082Z,99315.53
2023-01-15T10:43:40.702Z,99317.13
2023-01-15T10:46:14.318Z,99304.63
2023-01-15T10:48:46.956Z,99312.19
2023-01-15T10:51:18.894Z,99299.78
2023-01-15T10:53:51.840Z,99287.03
2023-01-15T10:56:30.123Z,99306.41
2023-01-15T10:59:05.469Z,99292.41
2023-01-15T11:01:33.615Z,99297.59
2023-01-15T11:04:02.083Z,99290.63
2023-01-15T11:06:32.452Z,99281.28
2023-01-15T11:09:11.291Z,99283.19
2023-01-15T11:12:02.079Z,99281.44
2023-01-15T11:14:54.511Z,99272.56
2023-01-15T11:17:41.432Z,99285.97
2023-01-15T11:20:24.579Z,99281.16
2023-01-15T11:22:52.850Z,99271.03
2023-01-15T11:25:30.507Z,99284.75
2023-01-15T11:28:01.585Z,99266.34
2023-01-15T11:30:32.283Z,99273.38
2023-01-15T11:33:04.013Z,99252.50
2023-01-15T11:35:33.446Z,99264.56
2023-01-15T11:38:06.544Z,99282.50
2023-01-15T11:40:35.937Z,99275.34
2023-01-15T11:43:21.038Z,99281.78
2023-01-15T11:46:09.225Z,99272.47
2023-01-15T11:49:03.259Z,99278.53
2023-01-15T11:51:34.049Z,99300.53
2023-01-15T11:54:06.410Z,99300.53
2023-01-15T11:56:37.381Z,99332.34
2023-01-15T11:59:11.322Z,99325.28
2023-01-15T12:01:50.261Z,99339.06
2023-01-15T12:04:31.977Z,99327.59
2023-01-15T12:07:00.927Z,99286.09
2023-01-15T12:09:42.569Z,99268.84
2023-01-15T12:12:23.392Z,99271.97
2023-01-15T12:15:09.163Z,99273.38
2023-01-15T12:18:04.626Z,99278.94
2023-01-15T12:20:48.085Z,99276.19
2023-01-15T12:23:47.591Z,99265.13
2023-01-15T12:26:25.115Z,99266.63
2023-01-15T12:29:03.933Z,99274.53
2023-01-15T12:31:38.888Z,99281.72
2023-01-15T12:34:17.105Z,99269.47
2023-01-15T12:36:51.236Z,99275.00
2023-01-15T12:39:24.516Z,99262.44
2023-01-15T12:42:13.627Z,99244.84
2023-01-15T12:45:04.934Z,99262.56
2023-01-15T12:47:43.594Z,99249.44
2023-01-15T12:50:33.570Z,99241.28
2023-01-15T12:53:11.334Z,99241.72
2023-01-15T12:55:45.167Z,99243.19
2023-01-15T12:58:22.674Z,99240.53
2023-01-15T13:00:59.663Z,99226.31
2023-01-15T13:03:35.691Z,99217.72
2023-01-15T13:06:08.404Z,99209.78
2023-01-15T13:08:41.855Z,99213.78
2023-01-15T13:11:13.367Z,99204.94
2023-01-15T13:13:43.005Z,99209.22
2023-01-15T13:16:20.819Z,99204.50
2023-01-15T13:19:03.287Z,99200.44
2023-01-15T13:21:35.271Z,99207.94
2023-01-15T13:24:19.791Z,99209.50
2023-01-15T13:27:11.226Z,99199.69
2023-01-15T13:29:52.677Z,99202.13
2023-01-15T13:32:25.969Z,99197.78
2023-01-15T13:34:59.188Z,99201.91
2023-01-15T13:37:30.889Z,99204.19
2023-01-15T13:40:03.506Z,99185.50
2023-01-15T13:42:33.017Z,99190.28
2023-01-15T13:45:07.926Z,99190.19
2023-01-15T13:47:42.961Z,99207.72
2023-01-15T13:50:17.159Z,99194.13
2023-01-15T13:52:45.958Z,99189.44
2023-01-15T13:55:22.759Z,99185.19
2023-01-15T13:57:50.753Z,99178.94
2023-01-15T14:00:30.451Z,99194.13
2023-01-15T14:03:01.335Z,99182.56
2023-01-15T14:05:32.537Z,99189.44
2023-01-15T14:08:02.545Z,99172.16
2023-01-15T14:10:40.520Z,99196.22
2023-01-15T14:13:30.020Z,99181.72
2023-01-15T14:16:12.142Z,99172.59
2023-01-15T14:19:07.941Z,99178.69
2023-01-15T14:21:45.646Z,99184.97
2023-01-15T14:24:50.964Z,99178.25
2023-01-15T14:27:49.731Z,99174.50
2023-01-15T14:30:46.179Z,99176.97
2023-01-15T14:33:26.425Z,99181.09
2023-01-15T14:35:55.853Z,99179.16
2023-01-15T14:38:26.817Z,99177.34
2023-01-15T14:40:59.991Z,99172.50
2023-01-15T14:43:29.759Z,99174.19
2023-01-15T14:46:11.051Z,99177.59
2023-01-15T14:48:40.131Z,99193.28
2023-01-15T14:51:15.726Z,99177.84
2023-01-15T14:53:46.376Z,99175.91
2023-01-15T14:56:20.776Z,99178.09
2023-01-15T14:58:57.276Z,99170.50
2023-01-15T15:01:43.571Z,99183.38
2023-01-15T15:04:28.268Z,99190.38
2023-01-15T15:06:59.923Z,99196.06
2023-01-15T15:09:36.076Z,99211.63
2023-01-15T15:12:21.055Z,99206.75
2023-01-15T15:14:54.618Z,99221.41
2023-01-15T15:17:32.619Z,99219.94
2023-01-15T15:20:19.240Z,99231.00
2023-01-15T15:22:52.813Z,99224.72
2023-01-15T15:25:24.742Z,99235.47
2023-01-15T15:28:03.330Z,99244.84
2023-01-15T15:30:34.890Z,99263.34
2023-01-15T15:33:05.790Z,99264.63
2023-01-15T15:35:35.780Z,99256.69
2023-01-15T15:38:07.212Z,99293.19
2023-01-15T15:40:37.188Z,99291.78
2023-01-15T15:43:32.035Z,99314.69
2023-01-15T15:46:17.791Z,99298.34
2023-01-15T15:48:53.370Z,99319.16
2023-01-15T15:51:33.346Z,99313.84
2023-01-15T15:54:11.710Z,99326.03
2023-01-15T15:56:43.466Z,99331.72
2023-01-15T15:59:19.945Z,99323.47
2023-01-15T16:01:48.457Z,99317.13
2023-01-15T16:04:19.032Z,99335.25
2023-01-15T16:06:47.943Z,99322.88
2023-01-15T16:09:21.911Z,99319.38
2023-01-15T16:11:51.105Z,99340.22
2023-01-15T16:14:21.320Z,99342.56
2023-01-15T16:16:51.413Z,99356.22
2023-01-15T16:19:25.651Z,99358.97
2023-01-15T16:21:54.676Z,99359.88
2023-01-15T16:24:29.392Z,99352.00
2023-01-15T16:27:02.111Z,99352.28
2023-01-15T16:29:32.165Z,99354.53
2023-01-15T16:32:00.727Z,99356.56
2023-01-15T16:34:32.127Z,99351.94
2023-01-15T16:37:01.695Z,99356.91
2023-01-15T16:39:37.235Z,99380.81
2023-01-15T16:42:05.494Z,99386.59
2023-01-15T16:44:38.797Z,99384.16
2023-01-15T16:47:07.757Z,99371.00
2023-01-15T16:49:36.011Z,99390.25
2023-01-15T16:52:25.226Z,99397.53
2023-01-15T16:54:56.729Z,99398.31
2023-01-15T16:57:32.189Z,99399.69
2023-01-15T17:00:03.247Z,99416.91
2023-01-15T17:02:41.677Z,99420.59
2023-01-15T17:05:24.281Z,99414.28
2023-01-15T17:07:54.390Z,99425.25
2023-01-15T17:10:27.077Z,99427.50
2023-01-15T17:12:57.431Z,99429.41
2023-01-15T17:15:40.756Z,99433.28
2023-01-15T17:18:36.434Z,99422.28
2023-01-15T17:21:04.508Z,99438.91
2023-01-15T17:23:37.675Z,99423.06
2023-01-15T17:26:08.496Z,99426.03
2023-01-15T17:28:36.352Z,99420.00
2023-01-15T17:31:04.604Z,99421.56
2023-01-15T17:33:32.650Z,99436.75
2023-01-15T17:36:01.461Z,99430.63
2023-01-15T17:38:29.391Z,99435.00
2023-01-15T17:41:00.478Z,99439.28
2023-01-15T17:43:29.833Z,99449.63
2023-01-15T17:46:00.009Z,99446.97
2023-01-15T17:48:28.393Z,99443.47
2023-01-15T17:50:56.408Z,99445.28
2023-01-15T17:53:24.360Z,99450.72
2023-01-15T17:56:09.761Z,99437.03
2023-01-15T17:59:08.334Z,99446.00
2023-01-15T18:01:57.361Z,99450.91
2023-01-15T18:04:47.234Z,99459.72
2023-01-15T18:07:17.514Z,99450.41
2023-01-15T18:09:46.008Z,99436.00
2023-01-15T18:12:14.732Z,99453.81
2023-01-15T18:14:44.153Z,99455.09
2023-01-15T18:17:12.302Z,99456.75
2023-01-15T18:19:40.343Z,99461.66
2023-01-15T18:22:08.759Z,99471.63
2023-01-15T18:24:36.648Z,99478.03
2023-01-15T18:27:04.726Z,99473.47
2023-01-15T18:29:32.886Z,99478.91
2023-01-15T18:32:02.077Z,99488.66
2023-01-15T18:34:30.173Z,99487.56
2023-01-15T18:36:58.074Z,99488.41
2023-01-15T18:39:25.910Z,99493.06
2023-01-15T18:42:22.950Z,99492.31
2023-01-15T18:45:08.529Z,99507.78
2023-01-15T18:47:38.257Z,99500.16
2023-01-15T18:50:06.901Z,99507.72
2023-01-15T18:52:51.359Z,99509.22
2023-01-15T18:55:20.184Z,99517.78
2023-01-15T18:57:48.054Z,99502.19
2023-01-15T19:00:16.501Z,99508.69
2023-01-15T19:02:46.249Z,99502.13
2023-01-15T19:05:15.389Z,99515.66
2023-01-15T19:07:43.777Z,99510.91
2023-01-15T19:10:13.324Z,99521.13
2023-01-15T19:12:41.517Z,99513.00
2023-01-15T19:15:30.549Z,99527.09
2023-01-15T19:18:17.511Z,99531.00
2023-01-15T19:20:45.792Z,99535.63
2023-01-15T19:23:13.723Z,99545.50
2023-01-15T19:25:42.989Z,99540.63
2023-01-15T19:28:16.023Z,99548.78
2023-01-15T19:31:05.469Z,99549.69
2023-01-15T19:33:35.671Z,99553.72
2023-01-15T19:36:03.777Z,99549.72
2023-01-15T19:38:33.196Z,99557.56
2023-01-15T19:41:21.497Z,99552.78
2023-01-15T19:44:06.862Z,99562.28
2023-01-15T19:46:52.866Z,99570.28
2023-01-15T19:49:41.517Z,99567.25
2023-01-15T19:52:26.654Z,99566.00
2023-01-15T19:54:57.372Z,99568.47
2023-01-15T19:57:25.399Z,99586.00
2023-01-15T19:59:53.781Z,99589.22
2023-01-15T20:02:22.038Z,99594.66
2023-01-15T20:04:51.659Z,99599.09
2023-01-15T20:07:19.949Z,99609.69
2023-01-15T20:09:47.842Z,99588.28
2023-01-15T20:12:33.600Z,99592.22
2023-01-15T20:15:01.649Z,99598.84
2023-01-15T20:17:30.761Z,99604.59
2023-01-15T20:20:00.697Z,99599.59
2023-01-15T20:22:30.564Z,99602.81
2023-01-15T20:24:58.578Z,99606.44
2023-01-15T20:27:26.630Z,99614.00
2023-01-15T20:29:55.011Z,99616.53
2023-01-15T20:32:23.305Z,99623.53
2023-01-15T20:34:51.300Z,99620.97
2023-01-15T20:37:20.532Z,99625.78
2023-01-15T20:39:48.516Z,99618.19
2023-01-15T20:42:34.146Z,99625.53
2023-01-15T20:45:07.592Z,99615.84
2023-01-15T20:47:52.792Z,99609.41
2023-01-15T20:50:20.946Z,99613.66
2023-01-15T20:52:52.104Z,99611.69
2023-01-15T20:55:21.097Z,99620.06
2023-01-15T20:57:48.935Z,99619.63
2023-01-15T21:00:19.428Z,99617.75
2023-01-15T21:02:47.964Z,99631.91
2023-01-15T21:05:16.220Z,99617.31
2023-01-15T21:07:44.146Z,99619.75
2023-01-15T21:10:14.743Z,99623.91
2023-01-15T21:12:42.625Z,99620.97
2023-01-15T21:15:12.161Z,99611.69
2023-01-15T21:17:40.638Z,99613.78
2023-01-15T21:20:10.561Z,99616.59
2023-01-15T21:22:38.660Z,99614.16
2023-01-15T21:25:09.894Z,99612.00
2023-01-15T21:27:41.894Z,99609.56
2023-01-15T21:30:10.930Z,99606.81
2023-01-15T21:32:38.808Z,99600.88
2023-01-15T21:35:07.382Z,99602.56
2023-01-15T21:37:35.250Z,99600.66
2023-01-15T21:40:03.141Z,99599.84
2023-01-15T21:42:48.551Z,99603.81
2023-01-15T21:45:17.875Z,99611.84
2023-01-15T21:47:45.759Z,99614.97
2023-01-15T21:50:13.717Z,99610.81
2023-01-15T21:52:41.611Z,99608.81
2023-01-15T21:55:10.472Z,99614.44
2023-01-15T21:57:38.463Z,99610.19
2023-01-15T22:00:08.193Z,99617.38
2023-01-15T22:02:37.535Z,99623.06
2023-01-15T22:05:08.408Z,99623.41
2023-01-15T22:07:37.070Z,99628.59
2023-01-15T22:10:05.449Z,99618.59
2023-01-15T22:12:37.411Z,99620.06
2023-01-15T22:15:06.149Z,99624.94
2023-01-15T22:17:34.032Z,99636.47
2023-01-15T22:20:03.382Z,99633.84
2023-01-15T22:22:34.068Z,99633.72
2023-01-15T22:25:01.912Z,99626.72
2023-01-15T22:27:30.608Z,99632.00
2023-01-15T22:29:58.477Z,99627.56
2023-01-15T22:32:26.425Z,99633.16
2023-01-15T22:34:54.380Z,99627.78
2023-01-15T22:37:23.551Z,99635.53
2023-01-15T22:39:51.340Z,99637.31
2023-01-15T22:42:25.234Z,99634.94
2023-01-15T22:44:53.226Z,99625.47
2023-01-15T22:47:21.821Z,99632.72
2023-01-15T22:49:49.991Z,99631.34
2023-01-15T22:52:17.912Z,99621.03
2023-01-15T22:54:47.464Z,99618.13
2023-01-15T22:57:16.796Z,99625.69
2023-01-15T22:59:45.368Z,99617.69
2023-01-15T23:02:13.843Z,99616.28
2023-01-15T23:04:41.981Z,99616.00
2023-01-15T23:07:10.874Z,99618.31
2023-01-15T23:09:40.357Z,99610.06
2023-01-15T23:12:09.837Z,99621.31
2023-01-15T23:14:37.771Z,99625.41
2023-01-15T23:17:05.602Z,99631.34
2023-01-15T23:19:34.513Z,99622.00
2023-01-15T23:22:02.350Z,99620.50
2023-01-15T23:24:30.260Z,99618.13
2023-01-15T23:26:58.093Z,99623.38
2023-01-15T23:29:27.698Z,99619.38
2023-01-15T23:31:55.538Z,99617.56
2023-01-15T23:34:24.156Z,99628.44
2023-01-15T23:36:52.080Z,99627.81
2023-01-15T23:39:20.014Z,99621.41
2023-01-15T23:42:05.426Z,99622.91
2023-01-15T23:44:52.018Z,99627.47
2023-01-15T23:47:19.969Z,99617.91
2023-01-15T23:49:47.816Z,99607.56
2023-01-15T23:52:16.007Z,99616.31
2023-01-15T23:54:44.053Z,99614.56
2023-01-15T23:57:11.941Z,99616.91
2023-01-15T23:59:41.156Z,99609.53
